createdAt,value
2019-03-15T00:00:24.037Z,7.25
2019-03-15T00:03:54.069Z,7.14
2019-03-15T00:07:24.077Z,7.13
2019-03-15T00:10:54.069Z,7.19
2019-03-15T00:14:24.207Z,7.21
2019-03-15T00:17:54.217Z,7.15
2019-03-15T00:21:24.182Z,7.01
2019-03-15T00:24:54.259Z,6.95
2019-03-15T00:28:24.418Z,6.83
2019-03-15T00:31:54.508Z,6.78
2019-03-15T00:35:24.580Z,6.77
2019-03-15T00:38:54.768Z,6.62
2019-03-15T00:42:24.906Z,6.66
2019-03-15T00:45:54.989Z,6.7
2019-03-15T00:49:26.248Z,6.76
2019-03-15T00:52:56.329Z,6.85
2019-03-15T00:56:26.429Z,6.85
2019-03-15T00:59:56.478Z,6.88
2019-03-15T01:03:26.579Z,7.01
2019-03-15T01:06:56.639Z,6.97
2019-03-15T01:10:26.759Z,7.03
2019-03-15T01:13:56.960Z,7.07
2019-03-15T01:17:27.200Z,7.09
2019-03-15T01:20:57.180Z,7.13
2019-03-15T01:24:27.251Z,7.16
2019-03-15T01:27:57.271Z,7.18
2019-03-15T01:31:27.270Z,7.24
2019-03-15T01:34:57.362Z,7.24
2019-03-15T01:38:27.513Z,7.23
2019-03-15T01:41:57.661Z,7.3
2019-03-15T01:45:27.832Z,7.28
2019-03-15T01:48:57.892Z,7.33
2019-03-15T01:52:28.112Z,7.33
2019-03-15T01:55:58.224Z,7.4
2019-03-15T01:59:28.314Z,7.48
2019-03-15T02:00:16.494Z,7.49
2019-03-15T02:03:46.595Z,7.54
2019-03-15T02:07:16.813Z,7.6
2019-03-15T02:10:46.923Z,7.63
2019-03-15T02:14:17.004Z,7.64
2019-03-15T02:17:47.193Z,7.68
2019-03-15T02:21:17.259Z,7.68
2019-03-15T02:24:47.329Z,7.75
2019-03-15T02:28:17.488Z,7.81
2019-03-15T02:31:47.595Z,7.79
2019-03-15T02:35:17.681Z,7.65
2019-03-15T02:38:47.816Z,7.46
2019-03-15T02:42:17.915Z,7.3
2019-03-15T02:45:48.007Z,7.24
2019-03-15T02:49:18.176Z,7.18
2019-03-15T02:52:49.330Z,7.18
2019-03-15T02:56:19.483Z,7.26
2019-03-15T02:59:49.537Z,7.24
2019-03-15T03:03:20.720Z,7.16
2019-03-15T03:06:50.878Z,7.19
2019-03-15T03:10:21.084Z,7.15
2019-03-15T03:13:51.068Z,7.18
2019-03-15T03:17:21.078Z,7.15
2019-03-15T03:20:51.067Z,7.25
2019-03-15T03:24:21.259Z,7.26
2019-03-15T03:27:51.289Z,7.24
2019-03-15T03:31:21.474Z,7.24
2019-03-15T03:34:51.579Z,7.26
2019-03-15T03:38:21.600Z,7.29
2019-03-15T03:41:51.675Z,7.37
2019-03-15T03:45:23.335Z,7.38
2019-03-15T03:48:53.617Z,7.38
2019-03-15T03:52:23.659Z,7.42
2019-03-15T03:55:54.674Z,7.41
2019-03-15T03:59:24.850Z,7.42
2019-03-15T04:00:16.426Z,7.45
2019-03-15T04:03:46.490Z,7.3
2019-03-15T04:07:16.605Z,7.3
2019-03-15T04:10:46.679Z,7.35
2019-03-15T04:14:16.751Z,7.39
2019-03-15T04:17:47.149Z,7.43
2019-03-15T04:21:17.212Z,7.41
2019-03-15T04:24:47.242Z,7.41
2019-03-15T04:28:17.383Z,7.49
2019-03-15T04:31:47.363Z,7.5
2019-03-15T04:35:17.483Z,7.55
2019-03-15T04:38:47.573Z,7.28
2019-03-15T04:42:17.663Z,6.96
2019-03-15T04:45:47.814Z,6.65
2019-03-15T04:49:17.879Z,6.43
2019-03-15T04:52:47.864Z,6.62
2019-03-15T04:56:18.874Z,6.8
2019-03-15T04:59:48.924Z,6.99
2019-03-15T05:03:19.014Z,7.13
2019-03-15T05:06:49.155Z,7.28
2019-03-15T05:10:19.386Z,7.38
2019-03-15T05:13:49.415Z,7.55
2019-03-15T05:17:19.515Z,7.7
2019-03-15T05:20:49.765Z,7.77
2019-03-15T05:24:19.796Z,7.87
2019-03-15T05:27:49.796Z,8.01
2019-03-15T05:31:20.016Z,8.09
2019-03-15T05:34:50.117Z,8.08
2019-03-15T05:38:20.218Z,8.12
2019-03-15T05:41:50.260Z,8.19
2019-03-15T05:45:20.418Z,8.23
2019-03-15T05:48:50.523Z,8.29
2019-03-15T05:52:20.648Z,8.34
2019-03-15T05:55:50.698Z,8.4
2019-03-15T05:59:21.683Z,8.45
2019-03-15T06:00:16.772Z,8.43
2019-03-15T06:03:49.022Z,8.5
2019-03-15T06:07:19.419Z,8.29
2019-03-15T06:10:49.450Z,8.54
2019-03-15T06:14:19.471Z,8.7
2019-03-15T06:17:49.490Z,8.83
2019-03-15T06:21:19.620Z,8.72
2019-03-15T06:24:49.751Z,8.63
2019-03-15T06:28:19.821Z,8.24
2019-03-15T06:31:49.828Z,7.89
2019-03-15T06:35:20.065Z,7.65
2019-03-15T06:38:50.252Z,7.6
2019-03-15T06:42:20.301Z,7.54
2019-03-15T06:45:50.432Z,7.6
2019-03-15T06:49:21.157Z,7.75
2019-03-15T06:52:51.312Z,8.07
2019-03-15T06:56:21.463Z,8.35
2019-03-15T06:59:52.503Z,8.51
2019-03-15T07:03:22.593Z,8.7
2019-03-15T07:06:52.712Z,8.94
2019-03-15T07:10:22.934Z,9.21
2019-03-15T07:13:53.024Z,9.24
2019-03-15T07:17:23.054Z,9.39
2019-03-15T07:20:53.024Z,9.32
2019-03-15T07:24:25.482Z,9.22
2019-03-15T07:27:55.865Z,9.28
2019-03-15T07:31:26.036Z,9.41
2019-03-15T07:34:56.102Z,9.61
2019-03-15T07:38:26.153Z,9.57
2019-03-15T07:41:56.125Z,9.86
2019-03-15T07:45:26.260Z,10.23
2019-03-15T07:48:56.243Z,10.6
2019-03-15T07:52:26.467Z,10.92
2019-03-15T07:55:56.567Z,11.15
2019-03-15T07:59:27.949Z,11.28
2019-03-15T08:00:17.648Z,11.25
2019-03-15T08:03:47.646Z,11
2019-03-15T08:07:20.024Z,10.6
2019-03-15T08:10:50.539Z,10.04
2019-03-15T08:14:20.692Z,9.82
2019-03-15T08:17:50.637Z,9.83
2019-03-15T08:21:22.731Z,10.02
2019-03-15T08:24:52.971Z,10.14
2019-03-15T08:28:23.141Z,10.19
2019-03-15T08:31:53.262Z,10.13
2019-03-15T08:35:24.726Z,9.74
2019-03-15T08:38:54.862Z,9.81
2019-03-15T08:42:24.982Z,9.94
2019-03-15T08:45:55.002Z,9.83
2019-03-15T08:49:25.044Z,9.98
2019-03-15T08:52:55.081Z,9.99
2019-03-15T08:56:25.304Z,9.89
2019-03-15T08:59:57.710Z,10.01
2019-03-15T09:03:29.014Z,10.12
2019-03-15T09:06:59.024Z,10.32
2019-03-15T09:10:29.091Z,10.31
2019-03-15T09:13:59.135Z,10.42
2019-03-15T09:17:29.371Z,10.28
2019-03-15T09:20:59.438Z,10.12
2019-03-15T09:24:29.656Z,10.04
2019-03-15T09:27:59.706Z,9.83
2019-03-15T09:31:37.229Z,9.7
2019-03-15T09:35:16.987Z,9.53
2019-03-15T09:38:47.147Z,9.2
2019-03-15T09:42:17.192Z,9.11
2019-03-15T09:45:47.322Z,9.07
2019-03-15T09:49:17.471Z,9
2019-03-15T09:52:47.546Z,8.93
2019-03-15T09:56:17.649Z,9.09
2019-03-15T09:59:47.771Z,9.14
2019-03-15T10:00:16.119Z,9.16
2019-03-15T10:03:46.992Z,9.4
2019-03-15T10:07:17.236Z,9.62
2019-03-15T10:10:49.196Z,9.81
2019-03-15T10:14:19.541Z,10.27
2019-03-15T10:17:49.551Z,10.56
2019-03-15T10:21:19.673Z,10.83
2019-03-15T10:24:49.732Z,10.88
2019-03-15T10:28:19.722Z,10.68
2019-03-15T10:31:49.777Z,10.65
2019-03-15T10:35:19.903Z,10.63
2019-03-15T10:38:49.913Z,10.56
2019-03-15T10:42:19.990Z,10.24
2019-03-15T10:45:49.972Z,10.04
2019-03-15T10:49:20.104Z,9.78
2019-03-15T10:52:53.542Z,9.69
2019-03-15T10:56:24.000Z,9.8
2019-03-15T10:59:54.084Z,9.88
2019-03-15T11:03:24.132Z,10.07
2019-03-15T11:06:54.255Z,9.8
2019-03-15T11:10:24.349Z,9.64
2019-03-15T11:13:55.715Z,9.51
2019-03-15T11:17:25.888Z,9.24
2019-03-15T11:20:55.972Z,9.06
2019-03-15T11:24:26.097Z,9.1
2019-03-15T11:27:56.210Z,9.19
2019-03-15T11:31:26.224Z,9.35
2019-03-15T11:34:56.321Z,9.42
2019-03-15T11:38:26.423Z,9.41
2019-03-15T11:41:56.536Z,9.56
2019-03-15T11:45:26.514Z,9.62
2019-03-15T11:48:56.595Z,9.59
2019-03-15T11:52:26.689Z,9.95
2019-03-15T11:55:56.915Z,10.12
2019-03-15T11:59:27.094Z,10.17
2019-03-15T12:00:15.931Z,10.22
2019-03-15T12:03:52.921Z,10.1
2019-03-15T12:07:23.854Z,10.16
2019-03-15T12:10:53.896Z,10.43
2019-03-15T12:14:24.048Z,10.84
2019-03-15T12:17:54.076Z,11.19
2019-03-15T12:21:24.187Z,11.27
2019-03-15T12:24:54.243Z,11.71
2019-03-15T12:28:24.395Z,12.06
2019-03-15T12:31:54.423Z,11.81
2019-03-15T12:35:24.495Z,12.29
2019-03-15T12:38:54.517Z,12.06
2019-03-15T12:42:24.579Z,12.29
2019-03-15T12:45:54.564Z,13.06
2019-03-15T12:49:25.719Z,13.59
2019-03-15T12:52:55.906Z,13.58
2019-03-15T12:56:25.932Z,12.93
2019-03-15T12:59:55.969Z,12.21
2019-03-15T13:03:26.030Z,11.71
2019-03-15T13:06:56.102Z,11.54
2019-03-15T13:10:27.264Z,11.52
2019-03-15T13:13:57.316Z,11.32
2019-03-15T13:17:27.428Z,11.35
2019-03-15T13:20:57.561Z,11.93
2019-03-15T13:24:27.664Z,12.29
2019-03-15T13:27:57.667Z,11.94
2019-03-15T13:31:27.662Z,11.47
2019-03-15T13:34:57.718Z,10.94
2019-03-15T13:38:27.831Z,10.55
2019-03-15T13:41:57.886Z,10.52
2019-03-15T13:45:27.975Z,10.26
2019-03-15T13:48:58.029Z,9.96
2019-03-15T13:52:28.129Z,9.79
2019-03-15T13:55:58.293Z,9.74
2019-03-15T13:59:28.314Z,9.61
2019-03-15T14:00:16.447Z,9.56
2019-03-15T14:03:46.456Z,9.37
2019-03-15T14:07:19.838Z,9.31
2019-03-15T14:10:50.371Z,9.4
2019-03-15T14:14:20.652Z,9.43
2019-03-15T14:17:50.566Z,9.42
2019-03-15T14:21:20.566Z,9.3
2019-03-15T14:24:50.588Z,9.3
2019-03-15T14:28:20.610Z,9.29
2019-03-15T14:31:50.653Z,9.23
2019-03-15T14:35:20.835Z,9.15
2019-03-15T14:38:50.788Z,9.12
2019-03-15T14:42:21.099Z,9.17
2019-03-15T14:45:51.164Z,9.16
2019-03-15T14:49:21.272Z,9.09
2019-03-15T14:52:51.455Z,9.13
2019-03-15T14:56:21.518Z,9.12
2019-03-15T14:59:51.619Z,9.06
2019-03-15T15:03:21.651Z,9
2019-03-15T15:06:51.724Z,8.97
2019-03-15T15:10:21.916Z,8.99
2019-03-15T15:13:52.950Z,9.06
2019-03-15T15:17:23.021Z,9.01
2019-03-15T15:20:53.031Z,9.04
2019-03-15T15:24:23.084Z,9
2019-03-15T15:28:03.808Z,9
2019-03-15T15:31:34.718Z,9.07
2019-03-15T15:35:05.240Z,9.1
2019-03-15T15:38:35.316Z,9.08
2019-03-15T15:42:05.318Z,9
2019-03-15T15:45:35.436Z,8.89
2019-03-15T15:49:05.648Z,8.91
2019-03-15T15:52:35.915Z,8.93
2019-03-15T15:56:05.952Z,8.95
2019-03-15T15:59:36.165Z,8.94
2019-03-15T16:00:16.411Z,8.9
2019-03-15T16:03:46.636Z,8.88
2019-03-15T16:07:16.708Z,8.83
2019-03-15T16:10:46.691Z,8.77
2019-03-15T16:14:17.773Z,8.81
2019-03-15T16:17:47.774Z,8.68
2019-03-15T16:21:17.816Z,8.6
2019-03-15T16:24:47.928Z,8.52
2019-03-15T16:28:30.606Z,8.4
2019-03-15T16:32:01.735Z,8.33
2019-03-15T16:35:31.749Z,8.23
2019-03-15T16:39:04.149Z,8.13
2019-03-15T16:42:34.212Z,8.12
2019-03-15T16:46:04.371Z,8.13
2019-03-15T16:49:34.433Z,8.07
2019-03-15T16:53:04.505Z,7.98
2019-03-15T16:56:34.513Z,7.91
2019-03-15T17:00:05.009Z,7.87
2019-03-15T17:03:35.082Z,7.8
2019-03-15T17:07:05.103Z,7.81
2019-03-15T17:10:35.145Z,7.7
2019-03-15T17:14:05.166Z,7.68
2019-03-15T17:17:37.030Z,7.58
2019-03-15T17:21:07.020Z,7.51
2019-03-15T17:24:37.032Z,7.49
2019-03-15T17:28:07.024Z,7.35
2019-03-15T17:31:37.008Z,7.23
2019-03-15T17:35:07.954Z,7.18
2019-03-15T17:38:37.950Z,7.03
2019-03-15T17:42:07.899Z,6.94
2019-03-15T17:45:38.014Z,6.88
2019-03-15T17:49:08.048Z,6.78
2019-03-15T17:52:38.065Z,6.85
2019-03-15T17:56:08.120Z,6.86
2019-03-15T17:59:38.271Z,6.64
2019-03-15T18:00:22.272Z,6.64
2019-03-15T18:03:52.527Z,6.65
2019-03-15T18:07:22.597Z,6.62
2019-03-15T18:10:52.698Z,6.57
2019-03-15T18:14:22.789Z,6.58
2019-03-15T18:17:53.731Z,6.57
2019-03-15T18:21:23.965Z,6.49
2019-03-15T18:24:54.086Z,6.39
2019-03-15T18:28:24.057Z,6.33
2019-03-15T18:31:54.079Z,6.28
2019-03-15T18:35:33.660Z,6.21
2019-03-15T18:39:06.415Z,6.11
2019-03-15T18:42:36.432Z,6.01
2019-03-15T18:46:06.469Z,6
2019-03-15T18:49:36.589Z,5.93
2019-03-15T18:53:06.570Z,5.87
2019-03-15T18:56:36.642Z,5.81
2019-03-15T19:00:09.914Z,5.8
2019-03-15T19:03:39.926Z,5.74
2019-03-15T19:07:09.928Z,5.68
2019-03-15T19:10:39.911Z,5.71
2019-03-15T19:14:09.938Z,5.63
2019-03-15T19:17:40.131Z,5.62
2019-03-15T19:21:11.065Z,5.57
2019-03-15T19:24:41.030Z,5.53
2019-03-15T19:28:10.967Z,5.49
2019-03-15T19:31:41.046Z,5.52
2019-03-15T19:35:11.226Z,5.47
2019-03-15T19:38:41.328Z,5.42
2019-03-15T19:42:11.457Z,5.37
2019-03-15T19:45:41.505Z,5.42
2019-03-15T19:49:11.467Z,5.44
2019-03-15T19:52:41.808Z,5.46
2019-03-15T19:56:11.918Z,5.47
2019-03-15T19:59:42.098Z,5.45
2019-03-15T20:00:16.579Z,5.46
2019-03-15T20:03:46.660Z,5.42
2019-03-15T20:07:16.689Z,5.41
2019-03-15T20:10:46.782Z,5.38
2019-03-15T20:14:16.852Z,5.37
2019-03-15T20:17:46.998Z,5.38
2019-03-15T20:21:17.974Z,5.35
2019-03-15T20:24:48.137Z,5.36
2019-03-15T20:28:18.297Z,5.36
2019-03-15T20:31:48.373Z,5.33
2019-03-15T20:35:18.542Z,5.33
2019-03-15T20:38:48.626Z,5.15
2019-03-15T20:42:18.708Z,5.03
2019-03-15T20:45:48.882Z,5.04
2019-03-15T20:49:18.949Z,5.06
2019-03-15T20:52:49.087Z,5.08
2019-03-15T20:56:19.172Z,5.11
2019-03-15T20:59:49.193Z,5.14
2019-03-15T21:03:19.137Z,5.03
2019-03-15T21:06:49.199Z,4.87
2019-03-15T21:10:19.213Z,4.9
2019-03-15T21:13:49.236Z,4.97
2019-03-15T21:17:19.269Z,5.02
2019-03-15T21:20:49.352Z,5.08
2019-03-15T21:24:20.405Z,5.12
2019-03-15T21:27:54.036Z,4.97
2019-03-15T21:31:24.691Z,4.94
2019-03-15T21:34:54.685Z,4.96
2019-03-15T21:38:24.845Z,5.3
2019-03-15T21:41:54.961Z,5.57
2019-03-15T21:45:25.044Z,5.9
2019-03-15T21:48:55.027Z,6.03
2019-03-15T21:52:25.160Z,6.17
2019-03-15T21:55:55.183Z,6.18
2019-03-15T21:59:25.346Z,6.15
2019-03-15T22:00:16.220Z,6.1
2019-03-15T22:03:46.280Z,5.95
2019-03-15T22:07:16.393Z,5.83
2019-03-15T22:10:46.362Z,5.89
2019-03-15T22:14:16.419Z,5.95
2019-03-15T22:17:46.501Z,6.05
2019-03-15T22:21:16.579Z,6.11
2019-03-15T22:24:47.562Z,6.2
2019-03-15T22:28:17.582Z,6.21
2019-03-15T22:31:47.755Z,6.26
2019-03-15T22:35:17.928Z,6.3
2019-03-15T22:38:47.901Z,6.32
2019-03-15T22:42:18.063Z,6.38
2019-03-15T22:45:48.080Z,6.4
2019-03-15T22:49:18.067Z,6.41
2019-03-15T22:52:48.254Z,6.52
2019-03-15T22:56:18.356Z,6.53
2019-03-15T22:59:48.341Z,6.55
2019-03-15T23:03:18.672Z,6.49
2019-03-15T23:06:48.916Z,6.53
2019-03-15T23:10:18.989Z,6.53
2019-03-15T23:13:49.063Z,6.54
2019-03-15T23:17:19.156Z,6.56
2019-03-15T23:20:49.199Z,6.67
2019-03-15T23:24:19.302Z,6.64
2019-03-15T23:27:50.965Z,6.67
2019-03-15T23:31:20.968Z,6.65
2019-03-15T23:34:51.112Z,6.58
2019-03-15T23:38:21.143Z,6.53
2019-03-15T23:41:51.208Z,6.56
2019-03-15T23:45:21.251Z,6.59
2019-03-15T23:48:51.314Z,6.53
2019-03-15T23:52:21.479Z,6.56
2019-03-15T23:55:54.727Z,6.54
2019-03-15T23:59:24.994Z,6.52
